createdAt,value
2022-10-13T00:04:56.727Z,19.88
2022-10-13T00:10:03.364Z,20.20
2022-10-13T00:15:08.608Z,19.55
2022-10-13T00:20:12.832Z,22.40
2022-10-13T00:25:17.325Z,19.02
2022-10-13T00:30:23.270Z,17.13
2022-10-13T00:35:27.616Z,17.60
2022-10-13T00:40:32.841Z,16.17
2022-10-13T00:45:41.383Z,20.45
2022-10-13T00:50:45.363Z,19.45
2022-10-13T00:55:49.990Z,14.40
2022-10-13T01:00:55.338Z,18.15
2022-10-13T01:05:59.619Z,12.73
2022-10-13T01:11:24.537Z,13.63
2022-10-13T01:16:32.029Z,14.77
2022-10-13T01:21:36.430Z,13.63
2022-10-13T01:27:13.725Z,12.02
2022-10-13T01:32:21.268Z,12.70
2022-10-13T01:37:30.439Z,14.13
2022-10-13T01:42:39.262Z,18.70
2022-10-13T01:47:49.576Z,19.02
2022-10-13T01:52:52.749Z,18.13
2022-10-13T01:57:55.929Z,20.92
2022-10-13T02:03:07.387Z,24.10
2022-10-13T02:08:14.522Z,21.45
2022-10-13T02:13:18.682Z,17.27
2022-10-13T02:18:28.057Z,20.05
2022-10-13T02:23:31.499Z,19.85
2022-10-13T02:28:34.754Z,22.08
2022-10-13T02:33:39.351Z,19.30
2022-10-13T02:38:42.999Z,16.73
2022-10-13T02:43:49.098Z,10.65
2022-10-13T02:48:54.836Z,10.10
2022-10-13T02:53:59.928Z,10.45
2022-10-13T02:59:03.053Z,11.05
2022-10-13T03:04:07.801Z,11.57
2022-10-13T03:09:14.283Z,11.50
2022-10-13T03:14:18.518Z,10.70
2022-10-13T03:19:23.245Z,12.85
2022-10-13T03:24:27.664Z,14.93
2022-10-13T03:29:31.987Z,14.55
2022-10-13T03:34:36.727Z,16.20
2022-10-13T03:39:40.879Z,14.43
2022-10-13T03:44:45.337Z,16.52
2022-10-13T03:49:53.428Z,14.50
2022-10-13T03:54:56.988Z,12.80
2022-10-13T04:00:00.559Z,13.02
2022-10-13T04:05:07.358Z,11.63
2022-10-13T04:10:14.338Z,13.43
2022-10-13T04:15:22.042Z,13.80
2022-10-13T04:20:26.706Z,14.93
2022-10-13T04:25:29.912Z,12.40
2022-10-13T04:30:35.055Z,12.43
2022-10-13T04:35:46.153Z,12.23
2022-10-13T04:40:51.156Z,11.75
2022-10-13T04:45:54.411Z,10.70
2022-10-13T04:51:05.906Z,11.50
2022-10-13T04:56:10.842Z,10.95
2022-10-13T05:01:20.500Z,10.20
2022-10-13T05:06:28.854Z,10.45
2022-10-13T05:11:32.461Z,11.52
2022-10-13T05:16:36.365Z,10.85
2022-10-13T05:21:40.973Z,10.98
2022-10-13T05:26:45.407Z,9.65
2022-10-13T05:31:48.605Z,9.00
2022-10-13T05:36:54.342Z,10.32
2022-10-13T05:41:58.882Z,9.63
2022-10-13T05:47:07.530Z,10.02
2022-10-13T05:52:13.097Z,11.83
2022-10-13T05:57:21.117Z,10.68
2022-10-13T06:02:25.295Z,10.48
2022-10-13T06:07:29.849Z,9.85
2022-10-13T06:12:33.414Z,10.57
2022-10-13T06:17:37.905Z,10.98
2022-10-13T06:22:43.836Z,11.18
2022-10-13T06:27:49.447Z,10.63
2022-10-13T06:32:54.176Z,11.80
2022-10-13T06:38:00.881Z,12.27
2022-10-13T06:43:04.883Z,10.20
2022-10-13T06:48:17.695Z,9.85
2022-10-13T06:53:23.752Z,11.52
2022-10-13T06:58:27.336Z,10.73
2022-10-13T07:03:31.949Z,8.95
2022-10-13T07:08:36.735Z,9.25
2022-10-13T07:13:43.542Z,9.40
2022-10-13T07:18:54.378Z,12.18
2022-10-13T07:24:00.677Z,11.60
2022-10-13T07:29:05.565Z,11.50
2022-10-13T07:34:09.355Z,11.15
2022-10-13T07:39:17.456Z,12.80
2022-10-13T07:44:21.590Z,10.60
2022-10-13T07:49:25.142Z,11.50
2022-10-13T07:54:29.851Z,12.23
2022-10-13T07:59:34.026Z,11.50
2022-10-13T08:04:37.609Z,11.95
2022-10-13T08:09:42.263Z,11.57
2022-10-13T08:14:46.066Z,13.25
2022-10-13T08:19:50.012Z,12.77
2022-10-13T08:24:55.771Z,11.65
2022-10-13T08:29:59.919Z,10.75
2022-10-13T08:35:04.320Z,11.43
2022-10-13T08:40:13.771Z,11.32
2022-10-13T08:51:08.287Z,9.32
2022-10-13T08:56:20.994Z,12.35
2022-10-13T09:01:24.888Z,11.90
2022-10-13T09:06:28.956Z,11.02
2022-10-13T09:11:34.630Z,10.40
2022-10-13T09:16:39.379Z,12.27
2022-10-13T09:21:46.046Z,13.38
2022-10-13T09:26:52.576Z,14.82
2022-10-13T09:31:57.013Z,12.85
2022-10-13T09:37:01.015Z,13.65
2022-10-13T09:42:26.131Z,13.55
2022-10-13T09:47:31.022Z,12.60
2022-10-13T09:52:38.524Z,12.27
2022-10-13T09:57:47.046Z,13.57
2022-10-13T10:02:52.023Z,13.63
2022-10-13T10:07:55.289Z,15.13
2022-10-13T10:13:00.625Z,14.77
2022-10-13T10:18:06.938Z,15.05
2022-10-13T10:23:23.406Z,14.57
2022-10-13T10:28:52.253Z,13.68
2022-10-13T10:34:01.189Z,14.27
2022-10-13T10:39:09.968Z,14.88
2022-10-13T10:44:25.491Z,14.55
2022-10-13T10:49:33.245Z,14.60
2022-10-13T10:54:48.368Z,15.75
2022-10-13T11:00:01.215Z,14.18
2022-10-13T11:05:06.530Z,13.98
2022-10-13T11:10:25.087Z,14.93
2022-10-13T11:15:31.239Z,14.85
2022-10-13T11:20:57.612Z,14.27
2022-10-13T11:26:21.814Z,14.07
2022-10-13T11:31:33.533Z,13.10
2022-10-13T11:37:00.122Z,12.52
2022-10-13T11:42:24.550Z,12.43
2022-10-13T11:47:54.519Z,13.60
2022-10-13T11:53:17.785Z,13.05
2022-10-13T11:58:26.971Z,13.70
2022-10-13T12:03:35.439Z,16.80
2022-10-13T12:08:51.861Z,17.17
2022-10-13T12:13:58.018Z,14.85
2022-10-13T12:19:11.608Z,17.33
2022-10-13T12:24:21.328Z,14.07
2022-10-13T12:29:27.876Z,12.82
2022-10-13T12:34:37.212Z,11.50
2022-10-13T12:39:43.730Z,10.48
2022-10-13T12:45:12.761Z,10.63
2022-10-13T12:50:42.490Z,10.00
2022-10-13T12:55:59.394Z,10.35
2022-10-13T13:01:22.011Z,10.43
2022-10-13T13:06:42.971Z,10.98
2022-10-13T13:11:49.265Z,10.00
2022-10-13T13:17:08.094Z,9.88
2022-10-13T13:22:13.306Z,10.70
2022-10-13T13:27:20.206Z,8.90
2022-10-13T13:32:28.316Z,9.82
2022-10-13T13:37:39.506Z,9.55
2022-10-13T13:42:52.825Z,9.35
2022-10-13T13:48:01.717Z,9.93
2022-10-13T13:53:08.048Z,10.45
2022-10-13T13:58:12.981Z,10.63
2022-10-13T14:03:19.494Z,10.70
2022-10-13T14:08:25.102Z,11.30
2022-10-13T14:13:29.563Z,12.52
2022-10-13T14:18:34.660Z,13.52
2022-10-13T14:23:46.668Z,14.20
2022-10-13T14:28:50.722Z,14.05
2022-10-13T14:33:59.116Z,13.80
2022-10-13T14:39:08.649Z,13.57
2022-10-13T14:44:14.278Z,12.75
2022-10-13T14:49:22.998Z,14.10
2022-10-13T14:54:28.197Z,13.68
2022-10-13T14:59:31.796Z,14.23
2022-10-13T15:04:34.851Z,13.95
2022-10-13T15:09:53.041Z,14.45
2022-10-13T15:15:04.679Z,15.55
2022-10-13T15:20:09.882Z,15.00
2022-10-13T15:25:15.418Z,16.15
2022-10-13T15:30:18.970Z,15.73
2022-10-13T15:35:39.979Z,16.85
2022-10-13T15:40:45.935Z,17.13
2022-10-13T15:45:55.409Z,17.92
2022-10-13T15:50:59.983Z,17.83
2022-10-13T15:56:08.157Z,18.02
2022-10-13T16:01:12.721Z,18.98
2022-10-13T16:06:16.332Z,16.83
2022-10-13T16:11:22.022Z,15.70
2022-10-13T16:16:27.989Z,8.88
2022-10-13T16:21:31.606Z,15.85
2022-10-13T16:26:36.339Z,12.43
2022-10-13T16:31:42.031Z,12.20
2022-10-13T16:36:45.115Z,12.77
2022-10-13T16:41:51.291Z,11.85
2022-10-13T16:46:56.833Z,12.13
2022-10-13T16:51:59.949Z,11.48
2022-10-13T16:57:04.741Z,12.70
2022-10-13T17:02:08.018Z,12.70
2022-10-13T17:07:15.319Z,14.52
2022-10-13T17:12:20.277Z,15.05
2022-10-13T17:17:24.374Z,14.48
2022-10-13T17:22:28.422Z,14.98
2022-10-13T17:27:35.747Z,15.02
2022-10-13T17:32:39.950Z,15.80
2022-10-13T17:37:45.517Z,14.73
2022-10-13T17:42:58.146Z,13.52
2022-10-13T17:48:01.738Z,12.82
2022-10-13T17:53:32.342Z,14.32
2022-10-13T17:58:38.712Z,15.65
2022-10-13T18:03:44.645Z,16.20
2022-10-13T18:08:48.292Z,18.77
2022-10-13T18:13:53.153Z,17.33
2022-10-13T18:18:56.890Z,19.83
2022-10-13T18:24:02.646Z,18.65
2022-10-13T18:29:08.481Z,19.45
2022-10-13T18:34:13.962Z,18.25
2022-10-13T18:39:18.534Z,19.65
2022-10-13T18:44:25.889Z,18.25
2022-10-13T18:49:33.214Z,17.98
2022-10-13T18:54:36.761Z,18.83
2022-10-13T18:59:42.257Z,17.90
2022-10-13T19:04:45.374Z,18.15
2022-10-13T19:09:48.536Z,17.75
2022-10-13T19:14:53.383Z,18.98
2022-10-13T19:19:56.867Z,17.25
2022-10-13T19:25:00.520Z,19.55
2022-10-13T19:30:08.042Z,19.45
2022-10-13T19:35:11.771Z,19.05
2022-10-13T19:40:15.037Z,16.63
2022-10-13T19:45:19.549Z,13.52
2022-10-13T19:50:22.908Z,13.07
2022-10-13T19:55:25.872Z,11.63
2022-10-13T20:00:30.391Z,11.05
2022-10-13T20:05:33.629Z,10.70
2022-10-13T20:10:39.141Z,10.63
2022-10-13T20:15:44.327Z,10.73
2022-10-13T20:20:47.340Z,12.10
2022-10-13T20:25:50.555Z,12.52
2022-10-13T20:30:55.542Z,13.05
2022-10-13T20:36:00.098Z,13.02
2022-10-13T20:41:06.982Z,13.27
2022-10-13T20:46:11.755Z,13.90
2022-10-13T20:51:16.307Z,13.85
2022-10-13T20:56:20.255Z,13.90
2022-10-13T21:01:24.671Z,13.23
2022-10-13T21:06:28.357Z,13.57
2022-10-13T21:11:32.899Z,14.32
2022-10-13T21:16:38.849Z,13.50
2022-10-13T21:21:47.917Z,12.60
2022-10-13T21:26:52.464Z,13.15
2022-10-13T21:31:57.572Z,13.52
2022-10-13T21:37:00.614Z,13.80
2022-10-13T21:42:03.902Z,14.15
2022-10-13T21:47:08.378Z,14.98
2022-10-13T21:52:15.471Z,13.75
2022-10-13T21:57:19.477Z,13.15
2022-10-13T22:02:24.204Z,12.95
2022-10-13T22:07:27.732Z,12.60
2022-10-13T22:12:32.079Z,11.30
2022-10-13T22:17:40.356Z,10.35
2022-10-13T22:22:43.436Z,10.93
2022-10-13T22:27:46.891Z,9.63
2022-10-13T22:32:51.380Z,8.57
2022-10-13T22:37:54.460Z,6.75
2022-10-13T22:42:57.545Z,7.35
2022-10-13T22:48:02.921Z,6.68
2022-10-13T22:53:06.923Z,6.78
2022-10-13T22:58:10.161Z,6.38
2022-10-13T23:03:17.234Z,6.88
2022-10-13T23:08:22.241Z,7.90
2022-10-13T23:13:25.884Z,8.82
2022-10-13T23:18:31.677Z,8.00
2022-10-13T23:23:34.888Z,9.68
2022-10-13T23:28:38.625Z,10.40
2022-10-13T23:33:43.544Z,9.75
2022-10-13T23:38:47.098Z,9.27
2022-10-13T23:43:50.219Z,10.60
2022-10-13T23:48:55.197Z,10.77
2022-10-13T23:53:58.440Z,9.98
2022-10-13T23:59:02.050Z,10.68
